Time;durP1;ratioP1;P1;durP2;ratioP2;P2;SDS_P1;SDS_P2;PMS_P1;PMS_P2;Temp;Humidity;BMP_temperature;BMP_pressure;BME280_temperature;BME280_humidity;BME280_pressure;Samples;Min_cycle;Max_cycle;Signal;HPM_P1;HPM_P2
2024/02/15 00:01:39;;;;;;;;;;;;;;;27.91;17.00;98623.78;5105097;28;19927;-79
2024/02/15 00:04:05;;;;;;;;;;;;;;;27.97;16.95;98630.47;5097157;27;19920;-79
2024/02/15 00:06:31;;;;;;;;;;;;;;;28.03;16.93;98635.13;5102347;28;19973;-79
2024/02/15 00:08:57;;;;;;;;;;;;;;;27.92;17.16;98631.00;5109330;28;19924;-79
2024/02/15 00:11:24;;;;;;;;;;;;;;;27.84;17.13;98632.47;5102807;27;19990;-79
2024/02/15 00:13:50;;;;;;;;;;;;;;;27.74;17.59;98631.53;5105099;28;19919;-79
2024/02/15 00:16:16;;;;;;;;;;;;;;;27.41;17.68;98627.19;5109502;28;19946;-79
2024/02/15 00:18:42;;;;;;;;;;;;;;;27.09;17.86;98628.03;5095561;27;19920;-79
2024/02/15 00:21:08;;;;;;;;;;;;;;;27.20;17.96;98634.16;5109959;28;19920;-79
2024/02/15 00:23:35;;;;;;;;;;;;;;;27.42;17.99;98625.19;5123617;27;20022;-79
2024/02/15 00:26:01;;;;;;;;;;;;;;;27.35;17.63;98634.59;5103900;27;20011;-79
2024/02/15 00:28:27;;;;;;;;;;;;;;;27.27;17.79;98636.81;5115289;28;19965;-79
2024/02/15 00:30:53;;;;;;;;;;;;;;;27.25;17.92;98625.19;5097677;27;19920;-79
2024/02/15 00:33:19;;;;;;;;;;;;;;;27.53;17.65;98623.66;5104834;28;19966;-79
2024/02/15 00:35:45;;;;;;;;;;;;;;;27.68;17.54;98624.81;5101379;27;19946;-79
2024/02/15 00:38:11;;;;;;;;;;;;;;;27.46;17.87;98623.84;5105816;28;19927;-79
2024/02/15 00:40:37;;;;;;;;;;;;;;;27.50;17.73;98627.34;5112830;27;19923;-79
2024/02/15 00:43:03;;;;;;;;;;;;;;;27.62;17.76;98623.81;5103883;27;19998;-79
2024/02/15 00:45:29;;;;;;;;;;;;;;;27.66;17.65;98620.88;5108465;28;19924;-79
2024/02/15 00:47:55;;;;;;;;;;;;;;;27.77;17.54;98627.78;5105618;28;19931;-79
2024/02/15 00:50:23;;;;;;;;;;;;;;;27.88;17.45;98619.84;5112881;28;21616;-79
2024/02/15 00:52:49;;;;;;;;;;;;;;;28.02;17.20;98629.94;5096871;27;20296;-79
2024/02/15 00:55:16;;;;;;;;;;;;;;;28.03;17.11;98632.31;5104017;28;19928;-79
2024/02/15 00:57:42;;;;;;;;;;;;;;;27.75;17.50;98635.91;5112256;27;19959;-79
2024/02/15 01:00:09;;;;;;;;;;;;;;;27.76;18.10;98631.88;5114701;28;19965;-79
2024/02/15 01:02:35;;;;;;;;;;;;;;;27.89;17.66;98631.94;5105461;27;20000;-79
2024/02/15 01:05:01;;;;;;;;;;;;;;;27.89;17.48;98638.34;5101986;28;19912;-79
2024/02/15 01:07:27;;;;;;;;;;;;;;;27.75;17.77;98635.91;5110370;27;19924;-79
2024/02/15 01:09:53;;;;;;;;;;;;;;;27.87;17.74;98634.38;5097455;28;19972;-79
2024/02/15 01:12:20;;;;;;;;;;;;;;;27.99;17.82;98630.84;5099450;28;19927;-79
2024/02/15 01:14:47;;;;;;;;;;;;;;;28.03;17.68;98637.97;5103294;28;19916;-79
2024/02/15 01:17:13;;;;;;;;;;;;;;;28.19;17.83;98639.13;5099228;27;19939;-79
2024/02/15 01:19:40;;;;;;;;;;;;;;;28.23;17.76;98639.81;5113475;28;20293;-79
2024/02/15 01:22:06;;;;;;;;;;;;;;;28.26;17.77;98636.91;5105919;28;19920;-79
2024/02/15 01:24:32;;;;;;;;;;;;;;;28.36;17.66;98637.78;5110276;28;19923;-79
2024/02/15 01:26:58;;;;;;;;;;;;;;;28.43;17.75;98641.19;5099755;28;19920;-79
2024/02/15 01:29:25;;;;;;;;;;;;;;;28.33;17.71;98638.72;5108031;28;20380;-79
2024/02/15 01:31:52;;;;;;;;;;;;;;;27.86;18.36;98641.28;5108065;28;19955;-79
2024/02/15 01:34:18;;;;;;;;;;;;;;;27.60;18.37;98651.66;5107608;28;19920;-79
2024/02/15 01:36:44;;;;;;;;;;;;;;;27.84;18.00;98653.00;5106241;28;20018;-79
2024/02/15 01:39:10;;;;;;;;;;;;;;;28.04;17.94;98644.41;5106212;27;19919;-79
2024/02/15 01:41:36;;;;;;;;;;;;;;;28.25;17.68;98648.63;5111423;28;20324;-79
2024/02/15 01:44:02;;;;;;;;;;;;;;;28.25;17.70;98651.44;5107071;28;20011;-79
2024/02/15 01:46:29;;;;;;;;;;;;;;;28.21;17.80;98645.91;5106359;28;19928;-79
2024/02/15 01:48:56;;;;;;;;;;;;;;;28.36;17.53;98647.06;5110268;28;19935;-79
2024/02/15 01:51:23;;;;;;;;;;;;;;;28.28;17.70;98653.38;5107492;28;19988;-79
2024/02/15 01:53:49;;;;;;;;;;;;;;;28.26;17.54;98647.41;5111457;28;19916;-79
2024/02/15 01:56:17;;;;;;;;;;;;;;;28.03;17.87;98654.09;5081217;28;19931;-79
2024/02/15 01:58:45;;;;;;;;;;;;;;;27.88;18.05;98652.91;5103352;28;20392;-79
2024/02/15 02:01:12;;;;;;;;;;;;;;;28.03;17.80;98646.44;5099020;28;19920;-79
2024/02/15 02:03:39;;;;;;;;;;;;;;;28.19;17.74;98654.06;5100302;28;19920;-79
2024/02/15 02:06:05;;;;;;;;;;;;;;;28.16;17.98;98657.75;5112991;28;19920;-79
2024/02/15 02:08:31;;;;;;;;;;;;;;;28.19;18.00;98647.59;5108046;28;19927;-79
2024/02/15 02:10:57;;;;;;;;;;;;;;;28.20;17.57;98652.00;5106557;28;20369;-79
2024/02/15 02:13:23;;;;;;;;;;;;;;;28.32;17.49;98648.41;5114901;28;20292;-79
2024/02/15 02:15:49;;;;;;;;;;;;;;;28.16;17.82;98648.50;5102158;27;19926;-79
2024/02/15 02:18:16;;;;;;;;;;;;;;;28.31;17.63;98644.78;5108066;28;19924;-79
2024/02/15 02:20:42;;;;;;;;;;;;;;;28.44;17.45;98642.78;5111982;28;19920;-79
2024/02/15 02:23:09;;;;;;;;;;;;;;;28.56;17.56;98641.22;5097619;28;19924;-79
2024/02/15 02:25:35;;;;;;;;;;;;;;;28.42;17.60;98650.13;5100360;28;19932;-79
2024/02/15 02:28:02;;;;;;;;;;;;;;;27.92;18.36;98648.75;5104335;28;19963;-79
2024/02/15 02:30:30;;;;;;;;;;;;;;;27.62;18.42;98649.19;5106845;28;19924;-79
2024/02/15 02:32:58;;;;;;;;;;;;;;;27.90;18.21;98647.59;5099198;28;19931;-79
2024/02/15 02:35:25;;;;;;;;;;;;;;;28.19;18.37;98647.59;5097623;28;19920;-79
2024/02/15 02:37:53;;;;;;;;;;;;;;;28.38;18.47;98644.56;5096522;28;19920;-79
2024/02/15 02:40:19;;;;;;;;;;;;;;;28.24;18.45;98652.72;5103807;28;19946;-79
2024/02/15 02:42:51;;;;;;;;;;;;;;;27.85;18.92;98642.50;5105497;28;19919;-79
2024/02/15 02:45:19;;;;;;;;;;;;;;;27.93;19.06;98632.59;5114376;28;19965;-79
2024/02/15 02:47:46;;;;;;;;;;;;;;;28.23;18.75;98642.63;5107635;27;19923;-79
2024/02/15 02:50:13;;;;;;;;;;;;;;;28.31;18.54;98638.38;5114429;28;19964;-79
2024/02/15 02:52:40;;;;;;;;;;;;;;;28.50;18.26;98637.34;5111713;28;20010;-79
2024/02/15 02:55:09;;;;;;;;;;;;;;;28.35;18.76;98634.19;5113435;28;19934;-79
2024/02/15 02:57:37;;;;;;;;;;;;;;;28.24;18.57;98633.72;5103518;28;19915;-79
2024/02/15 03:00:14;;;;;;;;;;;;;;;28.02;19.12;98632.78;5100934;28;19920;-79
2024/02/15 03:02:41;;;;;;;;;;;;;;;28.21;18.39;98639.47;5101570;28;20382;-79
2024/02/15 03:05:08;;;;;;;;;;;;;;;28.12;18.63;98637.31;5107306;28;20325;-79
2024/02/15 03:07:34;;;;;;;;;;;;;;;28.14;18.57;98642.50;5102176;28;20014;-79
2024/02/15 03:10:01;;;;;;;;;;;;;;;28.11;18.68;98637.75;5103869;28;19922;-79
2024/02/15 03:12:28;;;;;;;;;;;;;;;28.02;18.59;98641.25;5095718;28;19920;-79
2024/02/15 03:14:55;;;;;;;;;;;;;;;28.06;18.46;98642.72;5102867;28;19964;-79
2024/02/15 03:17:21;;;;;;;;;;;;;;;28.04;18.52;98633.09;5111613;28;19922;-79
2024/02/15 03:19:48;;;;;;;;;;;;;;;28.13;18.56;98636.06;5097229;28;19939;-79
2024/02/15 03:22:14;;;;;;;;;;;;;;;28.29;18.46;98635.97;5102984;27;19999;-79
2024/02/15 03:24:41;;;;;;;;;;;;;;;28.54;18.08;98641.66;5101222;28;19939;-79
2024/02/15 03:27:09;;;;;;;;;;;;;;;28.68;17.97;98644.06;5100974;28;19920;-79
2024/02/15 03:29:35;;;;;;;;;;;;;;;28.62;18.31;98636.59;5101313;27;19920;-79
2024/02/15 03:32:04;;;;;;;;;;;;;;;28.46;18.47;98631.81;5097038;28;20002;-79
2024/02/15 03:34:31;;;;;;;;;;;;;;;28.08;19.00;98635.84;5094277;28;19928;-79
2024/02/15 03:36:57;;;;;;;;;;;;;;;27.81;18.93;98639.00;5111140;28;20392;-79
2024/02/15 03:39:23;;;;;;;;;;;;;;;27.86;18.99;98632.81;5098944;28;20470;-79
2024/02/15 03:41:50;;;;;;;;;;;;;;;28.12;18.70;98631.69;5102960;28;19920;-79
2024/02/15 03:44:18;;;;;;;;;;;;;;;28.11;18.86;98634.94;5104393;28;20372;-79
2024/02/15 03:46:50;;;;;;;;;;;;;;;28.19;18.73;98627.84;5111388;28;20026;-79
2024/02/15 03:49:17;;;;;;;;;;;;;;;27.89;18.73;98626.28;5103275;28;20377;-79
2024/02/15 03:51:44;;;;;;;;;;;;;;;27.84;19.06;98633.22;5098762;28;19973;-79
2024/02/15 03:54:13;;;;;;;;;;;;;;;27.79;19.48;98635.84;5111430;28;19972;-79
2024/02/15 03:56:46;;;;;;;;;;;;;;;27.79;19.37;98630.19;5097255;28;19924;-79
2024/02/15 03:59:13;;;;;;;;;;;;;;;27.75;19.25;98629.50;5108244;28;19916;-79
2024/02/15 04:01:39;;;;;;;;;;;;;;;27.91;19.15;98632.25;5102781;28;20376;-79
2024/02/15 04:04:05;;;;;;;;;;;;;;;27.91;18.78;98626.63;5096633;28;19926;-79
2024/02/15 04:06:33;;;;;;;;;;;;;;;28.02;18.98;98630.75;5081760;28;19916;-79
2024/02/15 04:08:59;;;;;;;;;;;;;;;28.28;18.74;98623.13;5100527;28;19923;-79
2024/02/15 04:11:25;;;;;;;;;;;;;;;28.47;18.54;98624.91;5107972;28;20003;-79
2024/02/15 04:13:51;;;;;;;;;;;;;;;28.42;18.38;98625.50;5109680;28;19927;-79
2024/02/15 04:16:18;;;;;;;;;;;;;;;28.08;18.80;98627.38;5110299;28;19911;-79
2024/02/15 04:18:45;;;;;;;;;;;;;;;27.96;18.97;98621.19;5108894;28;20393;-79
2024/02/15 04:21:11;;;;;;;;;;;;;;;27.87;19.12;98621.06;5106686;28;19916;-79
2024/02/15 04:23:37;;;;;;;;;;;;;;;27.66;19.45;98624.47;5096887;28;19926;-79
2024/02/15 04:26:03;;;;;;;;;;;;;;;27.65;19.31;98619.28;5105345;28;20429;-79
2024/02/15 04:28:29;;;;;;;;;;;;;;;27.51;19.64;98626.13;5097253;28;19923;-79
2024/02/15 04:30:55;;;;;;;;;;;;;;;27.48;19.46;98631.84;5107670;28;19973;-79
2024/02/15 04:33:21;;;;;;;;;;;;;;;27.47;19.61;98630.28;5110746;28;19973;-79
2024/02/15 04:35:49;;;;;;;;;;;;;;;27.22;19.73;98631.69;5092729;28;19920;-78
2024/02/15 04:38:15;;;;;;;;;;;;;;;27.31;19.53;98625.41;5096423;28;20339;-79
2024/02/15 04:40:41;;;;;;;;;;;;;;;27.40;19.51;98632.03;5099991;28;19920;-79
2024/02/15 04:43:08;;;;;;;;;;;;;;;27.46;19.83;98635.13;5106275;28;19920;-79
2024/02/15 04:45:35;;;;;;;;;;;;;;;27.57;19.52;98627.16;5107217;28;20405;-79
2024/02/15 04:48:01;;;;;;;;;;;;;;;27.44;19.79;98625.53;5109362;28;20010;-79
2024/02/15 04:50:29;;;;;;;;;;;;;;;27.40;19.79;98629.22;5093083;28;19928;-79
2024/02/15 04:52:55;;;;;;;;;;;;;;;27.35;19.77;98623.31;5114353;27;20007;-79
2024/02/15 04:55:22;;;;;;;;;;;;;;;27.26;19.98;98631.59;5097314;28;19924;-79
2024/02/15 04:57:54;;;;;;;;;;;;;;;27.12;20.18;98624.28;5107761;27;19924;-79
2024/02/15 05:00:22;;;;;;;;;;;;;;;27.38;19.88;98628.06;5105174;27;20011;-79
2024/02/15 05:02:49;;;;;;;;;;;;;;;27.81;19.50;98636.16;5115532;28;19927;-79
2024/02/15 05:05:15;;;;;;;;;;;;;;;28.08;19.38;98637.41;5109710;27;19980;-79
2024/02/15 05:07:43;;;;;;;;;;;;;;;28.15;19.11;98639.22;5094238;27;20003;-79
2024/02/15 05:10:09;;;;;;;;;;;;;;;27.98;19.34;98640.53;5094211;28;19942;-79
2024/02/15 05:12:37;;;;;;;;;;;;;;;28.22;19.37;98638.22;5100818;28;20318;-79
2024/02/15 05:15:09;;;;;;;;;;;;;;;28.33;18.99;98636.69;5096919;28;19926;-79
2024/02/15 05:17:37;;;;;;;;;;;;;;;28.50;18.96;98637.34;5107805;27;19924;-79
2024/02/15 05:20:10;;;;;;;;;;;;;;;28.23;19.14;98640.63;5113993;27;19993;-79
2024/02/15 05:22:38;;;;;;;;;;;;;;;28.04;19.18;98645.19;5105571;27;20396;-79
2024/02/15 05:25:05;;;;;;;;;;;;;;;28.03;19.23;98643.59;5107709;28;20012;-79
2024/02/15 05:27:31;;;;;;;;;;;;;;;28.18;19.29;98648.84;5095187;27;19938;-79
2024/02/15 05:29:57;;;;;;;;;;;;;;;28.08;19.33;98648.69;5103645;27;20331;-80
2024/02/15 05:32:23;;;;;;;;;;;;;;;27.99;19.43;98645.75;5106109;28;19920;-80
2024/02/15 05:34:49;;;;;;;;;;;;;;;27.84;19.59;98652.22;5096244;28;19951;-80
2024/02/15 05:37:15;;;;;;;;;;;;;;;27.80;19.69;98648.69;5103208;27;19927;-80
2024/02/15 05:39:42;;;;;;;;;;;;;;;27.62;20.03;98659.69;5095013;28;19920;-80
2024/02/15 05:42:10;;;;;;;;;;;;;;;27.65;20.04;98658.78;5107386;27;20014;-80
2024/02/15 05:44:36;;;;;;;;;;;;;;;27.75;19.56;98654.91;5107203;28;19924;-81
2024/02/15 05:47:02;;;;;;;;;;;;;;;27.86;19.53;98659.00;5110252;27;19919;-80
2024/02/15 05:49:28;;;;;;;;;;;;;;;27.87;19.67;98665.41;5099734;28;20293;-80
2024/02/15 05:51:54;;;;;;;;;;;;;;;27.84;19.68;98658.63;5113462;27;19923;-80
2024/02/15 05:54:22;;;;;;;;;;;;;;;27.89;19.76;98660.91;5098183;28;19986;-80
2024/02/15 05:56:51;;;;;;;;;;;;;;;28.13;19.39;98663.50;5096686;27;20011;-81
2024/02/15 05:59:20;;;;;;;;;;;;;;;28.31;19.36;98663.78;5114619;28;19970;-80
2024/02/15 06:01:48;;;;;;;;;;;;;;;28.27;19.34;98666.72;5100969;28;19949;-80
2024/02/15 06:04:14;;;;;;;;;;;;;;;28.17;19.31;98664.97;5095939;28;19920;-80
2024/02/15 06:06:40;;;;;;;;;;;;;;;28.10;19.40;98656.72;5099929;27;19920;-80
2024/02/15 06:09:06;;;;;;;;;;;;;;;28.09;19.58;98674.91;5102054;28;19920;-80
2024/02/15 06:11:33;;;;;;;;;;;;;;;28.17;19.50;98664.22;5107914;27;19927;-80
2024/02/15 06:13:59;;;;;;;;;;;;;;;28.32;19.43;98671.81;5109594;28;20014;-80
2024/02/15 06:16:26;;;;;;;;;;;;;;;28.64;19.20;98670.84;5088863;28;19928;-80
2024/02/15 06:18:52;;;;;;;;;;;;;;;28.67;19.23;98676.41;5106915;28;19926;-80
2024/02/15 06:21:18;;;;;;;;;;;;;;;28.89;19.07;98675.72;5111297;28;19927;-80
2024/02/15 06:23:45;;;;;;;;;;;;;;;28.70;19.12;98671.88;5113401;27;19926;-80
2024/02/15 06:26:11;;;;;;;;;;;;;;;28.64;19.33;98682.94;5097430;28;19947;-80
2024/02/15 06:39:45;;;;;;;;;;;;;;;28.03;20.03;98688.78;5089000;27;19966;-80
2024/02/15 06:42:14;;;;;;;;;;;;;;;28.04;20.01;98690.38;5101755;28;20388;-80
2024/02/15 06:44:40;;;;;;;;;;;;;;;27.94;20.18;98680.13;5093709;28;19920;-80
2024/02/15 06:47:06;;;;;;;;;;;;;;;28.36;19.71;98688.63;5104382;28;20034;-80
2024/02/15 06:49:33;;;;;;;;;;;;;;;27.95;20.45;98678.91;5106047;28;19920;-80
2024/02/15 06:52:01;;;;;;;;;;;;;;;27.81;20.36;98686.97;5093775;28;20385;-80
2024/02/15 06:54:28;;;;;;;;;;;;;;;27.71;20.51;98682.41;5100930;28;19942;-80
2024/02/15 06:56:54;;;;;;;;;;;;;;;27.48;20.72;98691.09;5104227;28;19919;-80
2024/02/15 06:59:22;;;;;;;;;;;;;;;27.43;21.01;98695.22;5110205;28;19926;-80
2024/02/15 07:01:49;;;;;;;;;;;;;;;28.08;20.09;98687.44;5113591;27;20027;-80
2024/02/15 07:04:15;;;;;;;;;;;;;;;28.40;19.90;98689.34;5099657;27;19935;-80
2024/02/15 07:06:44;;;;;;;;;;;;;;;28.72;19.55;98692.00;5101643;28;19922;-81
2024/02/15 07:09:10;;;;;;;;;;;;;;;28.87;19.80;98689.53;5112036;28;19916;-81
2024/02/15 07:11:37;;;;;;;;;;;;;;;29.07;19.34;98696.53;5107710;28;19973;-80
2024/02/15 07:14:07;;;;;;;;;;;;;;;29.13;19.29;98696.75;5104868;28;19920;-80
2024/02/15 07:16:33;;;;;;;;;;;;;;;29.18;19.20;98693.38;5093778;28;19928;-81
2024/02/15 07:18:59;;;;;;;;;;;;;;;29.38;19.46;98694.69;5093165;28;19916;-80
2024/02/15 07:21:26;;;;;;;;;;;;;;;29.76;18.88;98688.16;5098545;28;19977;-80
2024/02/15 07:23:54;;;;;;;;;;;;;;;29.29;18.98;98693.84;5093387;28;20015;-81
2024/02/15 07:26:23;;;;;;;;;;;;;;;28.97;19.35;98700.47;5093535;28;20348;-81
2024/02/15 07:28:53;;;;;;;;;;;;;;;28.87;19.49;98695.94;5118783;27;20390;-81
2024/02/15 07:31:21;;;;;;;;;;;;;;;29.17;18.93;98700.25;5111220;27;20002;-80
2024/02/15 07:33:48;;;;;;;;;;;;;;;29.05;19.06;98695.41;5111051;28;19962;-80
2024/02/15 07:36:18;;;;;;;;;;;;;;;28.74;19.72;98701.63;5105271;28;20396;-80
2024/02/15 07:38:45;;;;;;;;;;;;;;;28.69;19.61;98713.47;5093161;28;19916;-81
2024/02/15 07:41:12;;;;;;;;;;;;;;;28.71;20.37;98707.38;5103523;28;19916;-81
2024/02/15 07:43:39;;;;;;;;;;;;;;;28.99;19.32;98702.84;5113669;28;19919;-81
2024/02/15 07:46:05;;;;;;;;;;;;;;;29.23;19.62;98699.25;5094149;28;19916;-80
2024/02/15 07:48:31;;;;;;;;;;;;;;;29.35;19.20;98697.66;5103980;28;19916;-81
2024/02/15 07:50:58;;;;;;;;;;;;;;;29.37;19.51;98695.97;5113623;28;19977;-80
2024/02/15 07:53:24;;;;;;;;;;;;;;;29.24;19.30;98702.88;5113920;28;19920;-81
2024/02/15 07:55:51;;;;;;;;;;;;;;;28.72;19.55;98697.66;5105084;28;19931;-80
2024/02/15 07:58:18;;;;;;;;;;;;;;;28.48;20.16;98693.53;5100711;28;19926;-80
2024/02/15 08:00:45;;;;;;;;;;;;;;;28.77;19.76;98699.94;5097431;28;20380;-80
2024/02/15 08:03:11;;;;;;;;;;;;;;;29.01;19.55;98703.22;5103891;28;19997;-80
2024/02/15 08:05:37;;;;;;;;;;;;;;;29.17;19.69;98692.53;5096817;28;19940;-81
2024/02/15 08:08:04;;;;;;;;;;;;;;;28.80;20.03;98701.84;5109670;28;19969;-81
2024/02/15 08:10:31;;;;;;;;;;;;;;;29.03;20.06;98698.69;5091736;28;20443;-81
2024/02/15 08:12:58;;;;;;;;;;;;;;;29.23;19.77;98704.91;5092261;28;19938;-81
2024/02/15 08:15:24;;;;;;;;;;;;;;;29.24;20.19;98703.66;5093114;28;20018;-80
2024/02/15 08:17:50;;;;;;;;;;;;;;;29.23;19.76;98699.25;5092186;28;19917;-80
2024/02/15 08:20:21;;;;;;;;;;;;;;;29.19;20.41;98701.41;5110209;28;19919;-80
2024/02/15 08:22:47;;;;;;;;;;;;;;;29.40;20.04;98697.88;5098097;28;20411;-80
2024/02/15 08:25:15;;;;;;;;;;;;;;;29.41;19.45;98710.75;5078513;28;19916;-80
2024/02/15 08:27:45;;;;;;;;;;;;;;;29.58;19.75;98705.75;5101315;28;19970;-81
2024/02/15 08:30:13;;;;;;;;;;;;;;;29.52;19.94;98703.97;5112407;28;20397;-80
2024/02/15 08:32:41;;;;;;;;;;;;;;;29.37;19.88;98703.66;5113542;28;19923;-80
2024/02/15 08:35:12;;;;;;;;;;;;;;;28.70;19.85;98702.97;5109805;28;19927;-81
2024/02/15 08:37:38;;;;;;;;;;;;;;;29.05;20.11;98699.03;5111909;28;20276;-81
2024/02/15 08:40:10;;;;;;;;;;;;;;;29.18;20.21;98699.81;5109830;28;19923;-81
2024/02/15 08:42:38;;;;;;;;;;;;;;;29.54;19.82;98704.28;5113512;28;20022;-81
2024/02/15 08:45:05;;;;;;;;;;;;;;;29.89;20.08;98703.09;5108868;28;19921;-80
2024/02/15 08:47:31;;;;;;;;;;;;;;;30.22;19.46;98703.50;5115564;28;19923;-81
2024/02/15 08:49:59;;;;;;;;;;;;;;;30.09;19.55;98707.19;5116597;28;19916;-81
2024/02/15 08:52:26;;;;;;;;;;;;;;;30.07;19.33;98706.06;5103875;28;19969;-81
2024/02/15 08:54:52;;;;;;;;;;;;;;;30.39;19.15;98707.72;5098450;27;19920;-81
2024/02/15 08:57:19;;;;;;;;;;;;;;;30.69;19.37;98707.75;5111627;28;19926;-81
2024/02/15 08:59:45;;;;;;;;;;;;;;;30.50;18.75;98710.97;5110826;27;19967;-81
2024/02/15 09:02:11;;;;;;;;;;;;;;;30.46;19.05;98707.44;5097639;28;19920;-81
2024/02/15 09:04:37;;;;;;;;;;;;;;;30.41;20.22;98702.41;5101260;28;20372;-81
2024/02/15 09:07:04;;;;;;;;;;;;;;;30.62;19.86;98708.03;5107710;28;19919;-81
2024/02/15 09:09:31;;;;;;;;;;;;;;;30.62;19.53;98705.19;5114135;28;20296;-81
2024/02/15 09:11:57;;;;;;;;;;;;;;;30.76;18.92;98704.63;5113205;28;19965;-80
2024/02/15 09:14:23;;;;;;;;;;;;;;;30.15;20.15;98695.25;5109310;28;20010;-80
2024/02/15 09:16:49;;;;;;;;;;;;;;;30.33;19.23;98706.75;5106256;28;20014;-80
2024/02/15 09:19:15;;;;;;;;;;;;;;;30.47;19.19;98701.34;5114046;28;20011;-81
2024/02/15 09:21:41;;;;;;;;;;;;;;;30.35;19.21;98710.69;5092039;28;19975;-81
2024/02/15 09:24:08;;;;;;;;;;;;;;;30.38;19.24;98712.63;5090525;28;20401;-81
2024/02/15 09:26:34;;;;;;;;;;;;;;;30.30;19.30;98711.25;5096103;28;20408;-80
2024/02/15 09:29:00;;;;;;;;;;;;;;;30.00;19.55;98717.63;5100458;28;19920;-80
2024/02/15 09:31:26;;;;;;;;;;;;;;;30.23;19.76;98719.22;5103233;27;20309;-81
2024/02/15 09:33:52;;;;;;;;;;;;;;;30.22;19.56;98712.78;5109758;28;19920;-80
2024/02/15 09:36:18;;;;;;;;;;;;;;;30.06;19.63;98721.44;5097414;28;20019;-80
2024/02/15 09:38:46;;;;;;;;;;;;;;;30.05;19.88;98712.19;5079446;28;19927;-80
2024/02/15 09:41:12;;;;;;;;;;;;;;;29.45;20.06;98721.19;5095281;28;19916;-80
2024/02/15 09:43:38;;;;;;;;;;;;;;;29.12;19.98;98718.59;5098443;28;19920;-80
2024/02/15 09:46:04;;;;;;;;;;;;;;;28.67;20.84;98721.63;5095151;28;19927;-80
2024/02/15 09:48:31;;;;;;;;;;;;;;;28.70;20.47;98729.22;5097041;28;19916;-80
2024/02/15 09:50:58;;;;;;;;;;;;;;;29.07;20.41;98721.97;5097556;27;19921;-80
2024/02/15 09:53:26;;;;;;;;;;;;;;;29.56;20.42;98713.13;5095537;28;20026;-80
2024/02/15 09:55:54;;;;;;;;;;;;;;;29.60;19.55;98723.06;5095301;28;19920;-80
2024/02/15 09:58:23;;;;;;;;;;;;;;;29.88;20.49;98709.97;5099558;28;19920;-80
2024/02/15 10:00:49;;;;;;;;;;;;;;;30.50;20.01;98708.13;5095735;28;19916;-80
2024/02/15 10:03:18;;;;;;;;;;;;;;;31.07;19.02;98701.81;5108878;28;20325;-80
2024/02/15 10:05:44;;;;;;;;;;;;;;;30.90;19.35;98699.72;5100012;28;19920;-80
2024/02/15 10:08:11;;;;;;;;;;;;;;;31.00;19.77;98701.31;5104384;28;20301;-80
2024/02/15 10:10:37;;;;;;;;;;;;;;;31.07;18.53;98703.84;5111969;28;20295;-80
2024/02/15 10:13:03;;;;;;;;;;;;;;;30.87;18.95;98700.59;5105313;28;19920;-80
2024/02/15 10:15:30;;;;;;;;;;;;;;;30.68;18.89;98697.69;5107679;28;20350;-80
2024/02/15 10:17:56;;;;;;;;;;;;;;;30.77;18.98;98700.56;5110000;28;19961;-80
2024/02/15 10:20:25;;;;;;;;;;;;;;;31.01;20.19;98691.56;5102096;27;19966;-80
2024/02/15 10:23:00;;;;;;;;;;;;;;;31.23;18.69;98681.69;5107674;28;19919;-80
2024/02/15 10:25:26;;;;;;;;;;;;;;;29.89;20.13;98688.91;5106113;28;19931;-80
2024/02/15 10:28:01;;;;;;;;;;;;;;;30.66;19.44;98680.34;5109662;28;20304;-80
2024/02/15 10:30:29;;;;;;;;;;;;;;;30.72;19.33;98680.53;5108770;27;19962;-80
2024/02/15 10:32:57;;;;;;;;;;;;;;;29.56;21.04;98684.81;5109536;28;19967;-80
2024/02/15 10:35:23;;;;;;;;;;;;;;;29.91;19.70;98673.06;5106340;28;20288;-80
2024/02/15 10:37:50;;;;;;;;;;;;;;;30.34;19.07;98675.09;5109216;28;19919;-80
2024/02/15 10:40:20;;;;;;;;;;;;;;;30.31;19.95;98673.19;5109230;28;20623;-80
2024/02/15 10:42:51;;;;;;;;;;;;;;;30.41;19.80;98666.34;5113009;28;19916;-80
2024/02/15 10:45:17;;;;;;;;;;;;;;;31.06;19.57;98665.41;5109833;28;20392;-80
2024/02/15 10:47:45;;;;;;;;;;;;;;;31.69;18.93;98668.41;5112220;28;19963;-80
2024/02/15 10:50:11;;;;;;;;;;;;;;;31.98;18.25;98659.41;5100121;28;19953;-81
2024/02/15 10:52:42;;;;;;;;;;;;;;;31.95;18.48;98660.38;5099966;28;20003;-80
2024/02/15 10:55:13;;;;;;;;;;;;;;;31.13;18.55;98651.72;5100137;27;20442;-80
2024/02/15 10:57:43;;;;;;;;;;;;;;;30.11;19.39;98657.78;5103881;28;20006;-80
2024/02/15 11:00:16;;;;;;;;;;;;;;;30.08;19.90;98653.84;5101888;27;19927;-80
2024/02/15 11:02:48;;;;;;;;;;;;;;;30.45;19.57;98643.53;5110030;28;20010;-81
2024/02/15 11:05:20;;;;;;;;;;;;;;;29.95;19.76;98651.06;5106367;28;19970;-81
2024/02/15 11:07:46;;;;;;;;;;;;;;;29.95;19.65;98645.41;5101871;27;20002;-81
2024/02/15 11:10:16;;;;;;;;;;;;;;;30.06;19.55;98645.78;5104385;28;20266;-81
2024/02/15 11:12:43;;;;;;;;;;;;;;;30.53;19.68;98642.78;5105301;28;19920;-80
2024/02/15 11:15:09;;;;;;;;;;;;;;;30.42;19.63;98636.75;5110080;27;19951;-80
2024/02/15 11:17:45;;;;;;;;;;;;;;;30.82;19.37;98639.63;5102622;28;20330;-80
2024/02/15 11:20:32;;;;;;;;;;;;;;;30.57;18.72;98637.75;5099278;28;19926;-80
2024/02/15 11:22:58;;;;;;;;;;;;;;;29.85;19.10;98638.06;5098620;27;20305;-80
2024/02/15 11:25:34;;;;;;;;;;;;;;;30.05;19.57;98641.38;5102160;28;19932;-80
2024/02/15 11:28:19;;;;;;;;;;;;;;;28.97;20.47;98634.66;5105539;28;20377;-80
2024/02/15 11:30:45;;;;;;;;;;;;;;;28.83;20.65;98635.91;5107919;28;19916;-80
2024/02/15 11:33:44;;;;;;;;;;;;;;;28.76;20.53;98644.63;5107047;28;20396;-80
2024/02/15 11:36:12;;;;;;;;;;;;;;;29.71;19.97;98629.31;5073753;28;20396;-81
2024/02/15 11:38:43;;;;;;;;;;;;;;;30.16;19.58;98632.47;5112087;28;19924;-80
2024/02/15 11:41:12;;;;;;;;;;;;;;;30.77;18.88;98624.00;5103810;28;19942;-80
2024/02/15 11:43:45;;;;;;;;;;;;;;;30.05;19.62;98627.22;5097445;28;19927;-80
2024/02/15 11:46:15;;;;;;;;;;;;;;;30.42;20.14;98619.75;5098957;28;19971;-80
2024/02/15 11:48:41;;;;;;;;;;;;;;;30.74;19.02;98622.09;5100113;28;19916;-81
2024/02/15 11:51:07;;;;;;;;;;;;;;;30.44;19.38;98619.28;5107396;28;19924;-80
2024/02/15 11:53:33;;;;;;;;;;;;;;;30.57;20.14;98615.09;5106428;28;20038;-80
2024/02/15 11:56:04;;;;;;;;;;;;;;;31.23;19.23;98609.94;5098996;28;19989;-80
2024/02/15 11:59:02;;;;;;;;;;;;;;;30.72;19.73;98609.63;5109304;28;19935;-80
2024/02/15 12:20:31;;;;;;;;;;;;;;;31.30;18.82;98592.63;5108281;28;19935;-80
2024/02/15 12:23:01;;;;;;;;;;;;;;;28.60;20.57;98602.34;5109072;28;19980;-80
2024/02/15 12:25:27;;;;;;;;;;;;;;;28.19;21.17;98602.44;5110810;28;19928;-80
2024/02/15 12:27:54;;;;;;;;;;;;;;;29.16;20.48;98600.47;5109639;27;19920;-80
2024/02/15 12:30:21;;;;;;;;;;;;;;;27.53;21.84;98595.44;5109807;28;19920;-80
2024/02/15 12:32:48;;;;;;;;;;;;;;;28.19;21.47;98596.78;5111580;28;21149;-80
2024/02/15 12:35:21;;;;;;;;;;;;;;;28.28;21.25;98597.69;5108379;28;20504;-80
2024/02/15 12:37:47;;;;;;;;;;;;;;;29.85;19.65;98594.84;5109815;28;19928;-80
2024/02/15 12:40:16;;;;;;;;;;;;;;;29.45;19.96;98588.19;5108778;28;19919;-81
2024/02/15 12:42:46;;;;;;;;;;;;;;;29.08;20.30;98599.13;5106121;28;20388;-81
2024/02/15 12:45:20;;;;;;;;;;;;;;;28.82;20.40;98597.63;5111413;27;19920;-81
2024/02/15 12:47:47;;;;;;;;;;;;;;;29.98;19.41;98587.06;5113639;28;20006;-81
2024/02/15 12:50:17;;;;;;;;;;;;;;;30.73;18.98;98589.34;5111566;28;19916;-82
2024/02/15 12:52:47;;;;;;;;;;;;;;;30.88;18.45;98577.41;5115074;28;20010;-81
2024/02/15 12:55:14;;;;;;;;;;;;;;;29.05;20.99;98583.09;5099821;28;19924;-81
2024/02/15 12:57:42;;;;;;;;;;;;;;;29.33;20.23;98579.31;5110469;28;19973;-81
2024/02/15 13:00:17;;;;;;;;;;;;;;;30.48;19.43;98572.53;5106852;28;19924;-81
2024/02/15 13:02:44;;;;;;;;;;;;;;;31.51;18.70;98568.25;5112232;27;19920;-82
2024/02/15 13:05:11;;;;;;;;;;;;;;;31.92;18.35;98568.34;5115480;28;19969;-81
2024/02/15 13:07:38;;;;;;;;;;;;;;;31.95;18.13;98569.47;5105523;28;19943;-81
2024/02/15 13:10:06;;;;;;;;;;;;;;;31.51;19.35;98560.50;5102076;27;20345;-81
2024/02/15 13:12:34;;;;;;;;;;;;;;;32.03;17.77;98567.88;5109259;28;20334;-81
2024/02/15 13:15:04;;;;;;;;;;;;;;;32.08;18.52;98565.19;5092419;28;19961;-81
2024/02/15 13:17:30;;;;;;;;;;;;;;;32.26;18.21;98555.03;5111251;28;20277;-81
2024/02/15 13:20:04;;;;;;;;;;;;;;;32.50;17.51;98555.91;5114634;28;20360;-81